sensor_id;sensor_type;location;lat;lon;timestamp;P1;durP1;ratioP1;P2;durP2;ratioP2
74793;SDS011;63320;50.768;6.724;2023-01-09T00:01:41;0.68;;;0.20;;
74793;SDS011;63320;50.768;6.724;2023-01-09T00:04:08;1.27;;;0.50;;
74793;SDS011;63320;50.768;6.724;2023-01-09T00:06:33;0.82;;;0.35;;
74793;SDS011;63320;50.768;6.724;2023-01-09T00:08:58;1.10;;;0.20;;
74793;SDS011;63320;50.768;6.724;2023-01-09T00:11:24;0.52;;;0.13;;
74793;SDS011;63320;50.768;6.724;2023-01-09T00:13:49;0.25;;;0.20;;
74793;SDS011;63320;50.768;6.724;2023-01-09T00:16:16;0.85;;;0.30;;
74793;SDS011;63320;50.768;6.724;2023-01-09T00:18:41;0.15;;;0.10;;
74793;SDS011;63320;50.768;6.724;2023-01-09T00:21:08;0.17;;;0.10;;
74793;SDS011;63320;50.768;6.724;2023-01-09T00:23:35;0.38;;;0.20;;
74793;SDS011;63320;50.768;6.724;2023-01-09T00:26:01;0.50;;;0.20;;
74793;SDS011;63320;50.768;6.724;2023-01-09T00:28:27;0.32;;;0.20;;
74793;SDS011;63320;50.768;6.724;2023-01-09T00:30:54;0.45;;;0.30;;
74793;SDS011;63320;50.768;6.724;2023-01-09T00:33:21;0.38;;;0.20;;
74793;SDS011;63320;50.768;6.724;2023-01-09T00:35:48;0.00;;;0.00;;
74793;SDS011;63320;50.768;6.724;2023-01-09T00:38:14;0.28;;;0.10;;
74793;SDS011;63320;50.768;6.724;2023-01-09T00:40:39;0.57;;;0.28;;
74793;SDS011;63320;50.768;6.724;2023-01-09T00:43:04;0.10;;;0.10;;
74793;SDS011;63320;50.768;6.724;2023-01-09T00:45:30;0.85;;;0.40;;
74793;SDS011;63320;50.768;6.724;2023-01-09T00:47:56;0.63;;;0.20;;
74793;SDS011;63320;50.768;6.724;2023-01-09T00:50:28;1.25;;;0.13;;
74793;SDS011;63320;50.768;6.724;2023-01-09T00:52:57;0.75;;;0.10;;
74793;SDS011;63320;50.768;6.724;2023-01-09T00:55:26;0.95;;;0.20;;
74793;SDS011;63320;50.768;6.724;2023-01-09T00:57:51;0.90;;;0.38;;
74793;SDS011;63320;50.768;6.724;2023-01-09T01:00:17;1.10;;;0.22;;
74793;SDS011;63320;50.768;6.724;2023-01-09T01:02:42;0.80;;;0.20;;
74793;SDS011;63320;50.768;6.724;2023-01-09T01:05:08;1.35;;;0.30;;
74793;SDS011;63320;50.768;6.724;2023-01-09T01:07:35;0.50;;;0.20;;
74793;SDS011;63320;50.768;6.724;2023-01-09T01:10:00;0.43;;;0.08;;
74793;SDS011;63320;50.768;6.724;2023-01-09T01:12:25;1.52;;;0.20;;
74793;SDS011;63320;50.768;6.724;2023-01-09T01:14:51;0.73;;;0.10;;
74793;SDS011;63320;50.768;6.724;2023-01-09T01:17:17;1.05;;;0.10;;
74793;SDS011;63320;50.768;6.724;2023-01-09T01:19:43;0.30;;;0.17;;
74793;SDS011;63320;50.768;6.724;2023-01-09T01:22:08;0.30;;;0.10;;
74793;SDS011;63320;50.768;6.724;2023-01-09T01:24:35;0.22;;;0.10;;
74793;SDS011;63320;50.768;6.724;2023-01-09T01:27:00;0.75;;;0.20;;
74793;SDS011;63320;50.768;6.724;2023-01-09T01:29:26;0.95;;;0.10;;
74793;SDS011;63320;50.768;6.724;2023-01-09T01:31:51;1.65;;;0.10;;
74793;SDS011;63320;50.768;6.724;2023-01-09T01:34:17;0.90;;;0.10;;
74793;SDS011;63320;50.768;6.724;2023-01-09T01:36:42;0.70;;;0.20;;
74793;SDS011;63320;50.768;6.724;2023-01-09T01:39:07;1.65;;;0.10;;
74793;SDS011;63320;50.768;6.724;2023-01-09T01:41:34;1.75;;;0.20;;
74793;SDS011;63320;50.768;6.724;2023-01-09T01:44:01;0.10;;;0.00;;
74793;SDS011;63320;50.768;6.724;2023-01-09T01:46:28;0.50;;;0.10;;
74793;SDS011;63320;50.768;6.724;2023-01-09T01:48:57;1.10;;;0.17;;
74793;SDS011;63320;50.768;6.724;2023-01-09T01:51:27;0.60;;;0.10;;
74793;SDS011;63320;50.768;6.724;2023-01-09T01:53:57;2.15;;;0.25;;
74793;SDS011;63320;50.768;6.724;2023-01-09T01:56:27;0.57;;;0.10;;
74793;SDS011;63320;50.768;6.724;2023-01-09T01:59:00;1.15;;;0.10;;
74793;SDS011;63320;50.768;6.724;2023-01-09T02:01:30;0.60;;;0.10;;
74793;SDS011;63320;50.768;6.724;2023-01-09T02:03:56;2.08;;;0.25;;
74793;SDS011;63320;50.768;6.724;2023-01-09T02:06:23;0.63;;;0.17;;
74793;SDS011;63320;50.768;6.724;2023-01-09T02:08:49;0.95;;;0.30;;
74793;SDS011;63320;50.768;6.724;2023-01-09T02:11:15;0.88;;;0.15;;
74793;SDS011;63320;50.768;6.724;2023-01-09T02:13:42;1.30;;;0.20;;
74793;SDS011;63320;50.768;6.724;2023-01-09T02:16:14;0.70;;;0.17;;
74793;SDS011;63320;50.768;6.724;2023-01-09T02:18:48;1.20;;;0.30;;
74793;SDS011;63320;50.768;6.724;2023-01-09T02:21:21;0.55;;;0.20;;
74793;SDS011;63320;50.768;6.724;2023-01-09T02:26:57;0.57;;;0.10;;
74793;SDS011;63320;50.768;6.724;2023-01-09T02:32:38;3.38;;;0.30;;
74793;SDS011;63320;50.768;6.724;2023-01-09T02:35:15;1.50;;;0.20;;
74793;SDS011;63320;50.768;6.724;2023-01-09T02:37:48;1.98;;;0.30;;
74793;SDS011;63320;50.768;6.724;2023-01-09T02:40:21;2.72;;;0.30;;
74793;SDS011;63320;50.768;6.724;2023-01-09T02:42:50;0.65;;;0.22;;
74793;SDS011;63320;50.768;6.724;2023-01-09T02:45:18;2.40;;;0.20;;
74793;SDS011;63320;50.768;6.724;2023-01-09T02:47:45;0.20;;;0.10;;
74793;SDS011;63320;50.768;6.724;2023-01-09T02:50:12;0.68;;;0.25;;
74793;SDS011;63320;50.768;6.724;2023-01-09T02:52:45;2.58;;;0.40;;
74793;SDS011;63320;50.768;6.724;2023-01-09T02:55:25;1.40;;;0.20;;
74793;SDS011;63320;50.768;6.724;2023-01-09T02:58:02;3.50;;;0.60;;
74793;SDS011;63320;50.768;6.724;2023-01-09T03:00:34;0.93;;;0.30;;
74793;SDS011;63320;50.768;6.724;2023-01-09T03:03:14;0.95;;;0.30;;
74793;SDS011;63320;50.768;6.724;2023-01-09T03:05:46;2.15;;;0.28;;
74793;SDS011;63320;50.768;6.724;2023-01-09T03:08:17;0.65;;;0.30;;
74793;SDS011;63320;50.768;6.724;2023-01-09T03:10:45;2.50;;;0.30;;
74793;SDS011;63320;50.768;6.724;2023-01-09T03:13:17;1.30;;;0.40;;
74793;SDS011;63320;50.768;6.724;2023-01-09T03:15:45;1.83;;;0.32;;
74793;SDS011;63320;50.768;6.724;2023-01-09T03:18:14;2.10;;;0.30;;
74793;SDS011;63320;50.768;6.724;2023-01-09T03:20:42;2.30;;;0.40;;
74793;SDS011;63320;50.768;6.724;2023-01-09T03:23:08;0.80;;;0.20;;
74793;SDS011;63320;50.768;6.724;2023-01-09T03:25:33;5.68;;;0.30;;
74793;SDS011;63320;50.768;6.724;2023-01-09T03:27:59;2.03;;;0.45;;
74793;SDS011;63320;50.768;6.724;2023-01-09T03:30:27;1.55;;;0.20;;
74793;SDS011;63320;50.768;6.724;2023-01-09T03:32:54;1.17;;;0.22;;
74793;SDS011;63320;50.768;6.724;2023-01-09T03:35:20;3.28;;;0.40;;
74793;SDS011;63320;50.768;6.724;2023-01-09T03:37:46;2.20;;;0.40;;
74793;SDS011;63320;50.768;6.724;2023-01-09T03:40:11;0.82;;;0.20;;
74793;SDS011;63320;50.768;6.724;2023-01-09T03:42:37;2.45;;;0.40;;
74793;SDS011;63320;50.768;6.724;2023-01-09T03:45:03;3.42;;;0.50;;
74793;SDS011;63320;50.768;6.724;2023-01-09T03:47:29;4.80;;;0.60;;
74793;SDS011;63320;50.768;6.724;2023-01-09T03:49:54;2.13;;;0.40;;
74793;SDS011;63320;50.768;6.724;2023-01-09T03:52:21;6.47;;;0.80;;
74793;SDS011;63320;50.768;6.724;2023-01-09T03:54:46;2.97;;;0.50;;
74793;SDS011;63320;50.768;6.724;2023-01-09T03:57:12;2.63;;;0.43;;
74793;SDS011;63320;50.768;6.724;2023-01-09T03:59:37;4.43;;;0.88;;
74793;SDS011;63320;50.768;6.724;2023-01-09T04:02:02;6.68;;;0.65;;
74793;SDS011;63320;50.768;6.724;2023-01-09T04:04:28;3.00;;;0.50;;
74793;SDS011;63320;50.768;6.724;2023-01-09T04:06:53;2.88;;;0.50;;
74793;SDS011;63320;50.768;6.724;2023-01-09T04:09:20;3.33;;;0.60;;
74793;SDS011;63320;50.768;6.724;2023-01-09T04:11:45;2.70;;;0.50;;
74793;SDS011;63320;50.768;6.724;2023-01-09T04:14:10;2.50;;;0.55;;
74793;SDS011;63320;50.768;6.724;2023-01-09T04:16:36;3.58;;;0.57;;
74793;SDS011;63320;50.768;6.724;2023-01-09T04:19:01;1.98;;;0.70;;
74793;SDS011;63320;50.768;6.724;2023-01-09T04:21:26;3.40;;;0.70;;
74793;SDS011;63320;50.768;6.724;2023-01-09T04:23:52;2.60;;;0.50;;
74793;SDS011;63320;50.768;6.724;2023-01-09T04:26:18;4.15;;;0.70;;
74793;SDS011;63320;50.768;6.724;2023-01-09T04:28:44;4.45;;;0.73;;
74793;SDS011;63320;50.768;6.724;2023-01-09T04:31:09;3.38;;;0.60;;
74793;SDS011;63320;50.768;6.724;2023-01-09T04:33:34;5.70;;;0.73;;
74793;SDS011;63320;50.768;6.724;2023-01-09T04:36:00;4.70;;;0.82;;
74793;SDS011;63320;50.768;6.724;2023-01-09T04:38:25;4.85;;;0.70;;
74793;SDS011;63320;50.768;6.724;2023-01-09T04:40:50;7.60;;;1.58;;
74793;SDS011;63320;50.768;6.724;2023-01-09T04:43:17;7.93;;;1.20;;
74793;SDS011;63320;50.768;6.724;2023-01-09T04:45:42;4.55;;;0.95;;
74793;SDS011;63320;50.768;6.724;2023-01-09T04:48:08;6.97;;;1.00;;
74793;SDS011;63320;50.768;6.724;2023-01-09T04:50:33;4.20;;;0.65;;
74793;SDS011;63320;50.768;6.724;2023-01-09T04:52:58;6.13;;;1.00;;
74793;SDS011;63320;50.768;6.724;2023-01-09T04:55:24;5.35;;;0.70;;
74793;SDS011;63320;50.768;6.724;2023-01-09T04:57:49;5.95;;;0.55;;
74793;SDS011;63320;50.768;6.724;2023-01-09T05:00:16;3.80;;;0.70;;
74793;SDS011;63320;50.768;6.724;2023-01-09T05:02:42;4.20;;;0.65;;
74793;SDS011;63320;50.768;6.724;2023-01-09T05:05:07;2.90;;;0.52;;
74793;SDS011;63320;50.768;6.724;2023-01-09T05:07:33;4.38;;;0.50;;
74793;SDS011;63320;50.768;6.724;2023-01-09T05:09:59;4.45;;;0.60;;
74793;SDS011;63320;50.768;6.724;2023-01-09T05:12:24;4.50;;;1.05;;
74793;SDS011;63320;50.768;6.724;2023-01-09T05:14:50;5.57;;;0.70;;
74793;SDS011;63320;50.768;6.724;2023-01-09T05:17:17;8.02;;;1.20;;
74793;SDS011;63320;50.768;6.724;2023-01-09T05:19:42;3.03;;;1.02;;
74793;SDS011;63320;50.768;6.724;2023-01-09T05:22:07;6.78;;;0.70;;
74793;SDS011;63320;50.768;6.724;2023-01-09T05:24:33;7.00;;;0.90;;
74793;SDS011;63320;50.768;6.724;2023-01-09T05:26:58;5.45;;;1.13;;
74793;SDS011;63320;50.768;6.724;2023-01-09T05:29:23;7.13;;;1.65;;
74793;SDS011;63320;50.768;6.724;2023-01-09T05:31:49;12.93;;;3.97;;
74793;SDS011;63320;50.768;6.724;2023-01-09T05:34:15;10.65;;;3.55;;
74793;SDS011;63320;50.768;6.724;2023-01-09T05:36:41;11.68;;;2.33;;
74793;SDS011;63320;50.768;6.724;2023-01-09T05:39:06;8.38;;;2.13;;
74793;SDS011;63320;50.768;6.724;2023-01-09T05:41:31;8.00;;;2.50;;
74793;SDS011;63320;50.768;6.724;2023-01-09T05:43:58;8.30;;;2.70;;
74793;SDS011;63320;50.768;6.724;2023-01-09T05:46:23;7.45;;;2.35;;
74793;SDS011;63320;50.768;6.724;2023-01-09T05:48:48;9.10;;;3.50;;
74793;SDS011;63320;50.768;6.724;2023-01-09T05:51:15;6.13;;;2.20;;
74793;SDS011;63320;50.768;6.724;2023-01-09T05:53:40;4.28;;;1.40;;
74793;SDS011;63320;50.768;6.724;2023-01-09T05:56:06;2.40;;;0.80;;
74793;SDS011;63320;50.768;6.724;2023-01-09T05:58:31;3.05;;;0.80;;
74793;SDS011;63320;50.768;6.724;2023-01-09T06:00:56;3.90;;;0.90;;
74793;SDS011;63320;50.768;6.724;2023-01-09T06:03:22;4.45;;;0.85;;
74793;SDS011;63320;50.768;6.724;2023-01-09T06:05:47;5.50;;;1.13;;
74793;SDS011;63320;50.768;6.724;2023-01-09T06:08:14;3.85;;;0.80;;
74793;SDS011;63320;50.768;6.724;2023-01-09T06:10:39;4.07;;;0.88;;
74793;SDS011;63320;50.768;6.724;2023-01-09T06:13:04;3.95;;;1.00;;
74793;SDS011;63320;50.768;6.724;2023-01-09T06:15:30;4.03;;;0.80;;
74793;SDS011;63320;50.768;6.724;2023-01-09T06:17:55;4.93;;;1.00;;
74793;SDS011;63320;50.768;6.724;2023-01-09T06:20:20;8.82;;;1.40;;
74793;SDS011;63320;50.768;6.724;2023-01-09T06:22:46;4.05;;;0.90;;
74793;SDS011;63320;50.768;6.724;2023-01-09T06:25:12;4.88;;;0.90;;
74793;SDS011;63320;50.768;6.724;2023-01-09T06:27:38;4.32;;;1.08;;
74793;SDS011;63320;50.768;6.724;2023-01-09T06:30:03;2.95;;;0.68;;
74793;SDS011;63320;50.768;6.724;2023-01-09T06:32:30;5.32;;;0.98;;
74793;SDS011;63320;50.768;6.724;2023-01-09T06:34:55;4.82;;;1.10;;
74793;SDS011;63320;50.768;6.724;2023-01-09T06:37:20;5.40;;;1.20;;
74793;SDS011;63320;50.768;6.724;2023-01-09T06:39:46;2.78;;;1.10;;
74793;SDS011;63320;50.768;6.724;2023-01-09T06:42:12;2.58;;;0.82;;
74793;SDS011;63320;50.768;6.724;2023-01-09T06:44:38;2.38;;;0.90;;
74793;SDS011;63320;50.768;6.724;2023-01-09T06:47:03;3.40;;;1.55;;
74793;SDS011;63320;50.768;6.724;2023-01-09T06:49:29;4.07;;;1.05;;
74793;SDS011;63320;50.768;6.724;2023-01-09T06:51:54;4.07;;;1.20;;
74793;SDS011;63320;50.768;6.724;2023-01-09T06:54:20;5.43;;;0.85;;
74793;SDS011;63320;50.768;6.724;2023-01-09T06:56:45;5.35;;;1.05;;
74793;SDS011;63320;50.768;6.724;2023-01-09T06:59:12;3.88;;;0.73;;
74793;SDS011;63320;50.768;6.724;2023-01-09T07:01:38;4.75;;;0.80;;
74793;SDS011;63320;50.768;6.724;2023-01-09T07:04:03;4.07;;;1.20;;
74793;SDS011;63320;50.768;6.724;2023-01-09T07:06:29;4.40;;;1.00;;
74793;SDS011;63320;50.768;6.724;2023-01-09T07:08:54;4.35;;;1.00;;
74793;SDS011;63320;50.768;6.724;2023-01-09T07:11:19;4.93;;;1.10;;
74793;SDS011;63320;50.768;6.724;2023-01-09T07:13:45;4.30;;;0.93;;
74793;SDS011;63320;50.768;6.724;2023-01-09T07:16:11;2.22;;;0.70;;
74793;SDS011;63320;50.768;6.724;2023-01-09T07:18:37;3.38;;;0.80;;
74793;SDS011;63320;50.768;6.724;2023-01-09T07:21:04;4.20;;;0.90;;
74793;SDS011;63320;50.768;6.724;2023-01-09T07:23:29;3.28;;;0.73;;
74793;SDS011;63320;50.768;6.724;2023-01-09T07:25:55;4.20;;;0.90;;
74793;SDS011;63320;50.768;6.724;2023-01-09T07:28:20;4.40;;;0.80;;
74793;SDS011;63320;50.768;6.724;2023-01-09T07:30:45;3.20;;;0.70;;
74793;SDS011;63320;50.768;6.724;2023-01-09T07:33:12;3.35;;;0.73;;
74793;SDS011;63320;50.768;6.724;2023-01-09T07:35:37;5.25;;;1.30;;
74793;SDS011;63320;50.768;6.724;2023-01-09T07:38:03;4.53;;;1.13;;
74793;SDS011;63320;50.768;6.724;2023-01-09T07:40:28;7.80;;;1.80;;
74793;SDS011;63320;50.768;6.724;2023-01-09T07:42:53;6.82;;;1.60;;
74793;SDS011;63320;50.768;6.724;2023-01-09T07:45:19;5.60;;;1.30;;
74793;SDS011;63320;50.768;6.724;2023-01-09T07:47:44;6.30;;;1.30;;
74793;SDS011;63320;50.768;6.724;2023-01-09T07:50:11;7.10;;;1.20;;
74793;SDS011;63320;50.768;6.724;2023-01-09T07:52:37;6.85;;;1.35;;
74793;SDS011;63320;50.768;6.724;2023-01-09T07:55:02;6.93;;;1.25;;
74793;SDS011;63320;50.768;6.724;2023-01-09T07:57:28;4.78;;;1.27;;
74793;SDS011;63320;50.768;6.724;2023-01-09T07:59:53;4.78;;;1.30;;
74793;SDS011;63320;50.768;6.724;2023-01-09T08:02:19;5.43;;;1.00;;
74793;SDS011;63320;50.768;6.724;2023-01-09T08:04:44;7.03;;;1.20;;
74793;SDS011;63320;50.768;6.724;2023-01-09T08:07:11;6.03;;;1.35;;
74793;SDS011;63320;50.768;6.724;2023-01-09T08:09:36;5.80;;;1.23;;
74793;SDS011;63320;50.768;6.724;2023-01-09T08:12:02;4.35;;;1.00;;
74793;SDS011;63320;50.768;6.724;2023-01-09T08:14:27;6.97;;;1.38;;
74793;SDS011;63320;50.768;6.724;2023-01-09T08:16:52;7.03;;;1.10;;
74793;SDS011;63320;50.768;6.724;2023-01-09T08:19:18;4.57;;;0.95;;
74793;SDS011;63320;50.768;6.724;2023-01-09T08:21:43;6.03;;;1.40;;
74793;SDS011;63320;50.768;6.724;2023-01-09T08:24:10;4.95;;;1.10;;
74793;SDS011;63320;50.768;6.724;2023-01-09T08:26:35;6.47;;;1.30;;
74793;SDS011;63320;50.768;6.724;2023-01-09T08:29:00;5.57;;;1.50;;
74793;SDS011;63320;50.768;6.724;2023-01-09T08:31:26;4.72;;;1.17;;
74793;SDS011;63320;50.768;6.724;2023-01-09T08:33:51;4.95;;;1.10;;
74793;SDS011;63320;50.768;6.724;2023-01-09T08:36:16;4.95;;;1.10;;
74793;SDS011;63320;50.768;6.724;2023-01-09T08:38:42;5.82;;;1.27;;
74793;SDS011;63320;50.768;6.724;2023-01-09T08:41:08;3.25;;;0.82;;
74793;SDS011;63320;50.768;6.724;2023-01-09T08:43:34;4.13;;;0.80;;
74793;SDS011;63320;50.768;6.724;2023-01-09T08:45:59;4.75;;;0.82;;
74793;SDS011;63320;50.768;6.724;2023-01-09T08:48:25;3.50;;;0.85;;
74793;SDS011;63320;50.768;6.724;2023-01-09T08:50:50;4.00;;;0.77;;
74793;SDS011;63320;50.768;6.724;2023-01-09T08:53:15;5.07;;;1.20;;
74793;SDS011;63320;50.768;6.724;2023-01-09T08:55:41;7.20;;;1.83;;
74793;SDS011;63320;50.768;6.724;2023-01-09T08:58:08;7.72;;;2.70;;
74793;SDS011;63320;50.768;6.724;2023-01-09T09:00:33;10.98;;;3.35;;
74793;SDS011;63320;50.768;6.724;2023-01-09T09:02:58;8.35;;;2.58;;
74793;SDS011;63320;50.768;6.724;2023-01-09T09:05:26;8.68;;;2.60;;
74793;SDS011;63320;50.768;6.724;2023-01-09T09:07:52;6.70;;;1.67;;
74793;SDS011;63320;50.768;6.724;2023-01-09T09:10:18;5.05;;;1.30;;
74793;SDS011;63320;50.768;6.724;2023-01-09T09:12:46;5.32;;;1.30;;
74793;SDS011;63320;50.768;6.724;2023-01-09T09:15:14;5.80;;;1.30;;
74793;SDS011;63320;50.768;6.724;2023-01-09T09:17:39;7.75;;;2.03;;
74793;SDS011;63320;50.768;6.724;2023-01-09T09:20:05;7.85;;;1.98;;
74793;SDS011;63320;50.768;6.724;2023-01-09T09:22:31;4.82;;;1.23;;
74793;SDS011;63320;50.768;6.724;2023-01-09T09:24:57;5.18;;;1.15;;
74793;SDS011;63320;50.768;6.724;2023-01-09T09:27:22;3.22;;;0.75;;
74793;SDS011;63320;50.768;6.724;2023-01-09T09:29:47;3.55;;;0.90;;
74793;SDS011;63320;50.768;6.724;2023-01-09T09:32:14;4.72;;;1.05;;
74793;SDS011;63320;50.768;6.724;2023-01-09T09:34:40;1.40;;;0.38;;
74793;SDS011;63320;50.768;6.724;2023-01-09T09:37:05;3.03;;;0.90;;
74793;SDS011;63320;50.768;6.724;2023-01-09T09:39:30;3.38;;;0.45;;
74793;SDS011;63320;50.768;6.724;2023-01-09T09:47:51;3.60;;;0.80;;
74793;SDS011;63320;50.768;6.724;2023-01-09T09:50:26;3.17;;;0.50;;
74793;SDS011;63320;50.768;6.724;2023-01-09T09:53:02;1.48;;;0.30;;
74793;SDS011;63320;50.768;6.724;2023-01-09T09:55:35;2.38;;;0.38;;
74793;SDS011;63320;50.768;6.724;2023-01-09T09:58:03;3.45;;;0.50;;
74793;SDS011;63320;50.768;6.724;2023-01-09T10:00:31;1.65;;;0.40;;
74793;SDS011;63320;50.768;6.724;2023-01-09T10:03:00;3.03;;;0.50;;
74793;SDS011;63320;50.768;6.724;2023-01-09T10:05:29;2.97;;;0.60;;
74793;SDS011;63320;50.768;6.724;2023-01-09T10:08:00;1.90;;;0.35;;
74793;SDS011;63320;50.768;6.724;2023-01-09T10:12:57;1.23;;;0.32;;
74793;SDS011;63320;50.768;6.724;2023-01-09T10:15:27;2.15;;;0.30;;
74793;SDS011;63320;50.768;6.724;2023-01-09T10:18:05;2.97;;;0.40;;
74793;SDS011;63320;50.768;6.724;2023-01-09T10:20:43;2.83;;;0.30;;
74793;SDS011;63320;50.768;6.724;2023-01-09T10:23:26;3.50;;;0.45;;
74793;SDS011;63320;50.768;6.724;2023-01-09T10:26:10;1.60;;;0.30;;
74793;SDS011;63320;50.768;6.724;2023-01-09T10:28:47;3.65;;;0.52;;
74793;SDS011;63320;50.768;6.724;2023-01-09T10:31:22;1.73;;;0.47;;
74793;SDS011;63320;50.768;6.724;2023-01-09T10:34:00;4.63;;;0.70;;
74793;SDS011;63320;50.768;6.724;2023-01-09T10:36:42;2.03;;;0.25;;
74793;SDS011;63320;50.768;6.724;2023-01-09T10:39:19;1.65;;;0.40;;
74793;SDS011;63320;50.768;6.724;2023-01-09T10:41:50;2.03;;;0.50;;
74793;SDS011;63320;50.768;6.724;2023-01-09T10:44:22;1.00;;;0.47;;
74793;SDS011;63320;50.768;6.724;2023-01-09T10:46:52;2.40;;;0.52;;
74793;SDS011;63320;50.768;6.724;2023-01-09T10:49:21;2.42;;;0.40;;
74793;SDS011;63320;50.768;6.724;2023-01-09T10:51:48;2.15;;;0.40;;
74793;SDS011;63320;50.768;6.724;2023-01-09T10:54:16;1.83;;;0.20;;
74793;SDS011;63320;50.768;6.724;2023-01-09T10:56:43;1.20;;;0.30;;
74793;SDS011;63320;50.768;6.724;2023-01-09T10:59:17;1.55;;;0.30;;
74793;SDS011;63320;50.768;6.724;2023-01-09T11:01:43;1.15;;;0.30;;
74793;SDS011;63320;50.768;6.724;2023-01-09T11:04:11;0.85;;;0.20;;
74793;SDS011;63320;50.768;6.724;2023-01-09T11:06:46;0.70;;;0.20;;
74793;SDS011;63320;50.768;6.724;2023-01-09T11:09:15;0.43;;;0.10;;
74793;SDS011;63320;50.768;6.724;2023-01-09T11:11:40;2.13;;;0.20;;
74793;SDS011;63320;50.768;6.724;2023-01-09T11:14:09;0.68;;;0.17;;
74793;SDS011;63320;50.768;6.724;2023-01-09T11:16:38;0.43;;;0.15;;
74793;SDS011;63320;50.768;6.724;2023-01-09T11:19:15;1.00;;;0.30;;
74793;SDS011;63320;50.768;6.724;2023-01-09T11:21:40;1.17;;;0.20;;
74793;SDS011;63320;50.768;6.724;2023-01-09T11:24:27;1.13;;;0.17;;
74793;SDS011;63320;50.768;6.724;2023-01-09T11:26:53;1.13;;;0.17;;
74793;SDS011;63320;50.768;6.724;2023-01-09T11:29:40;1.38;;;0.20;;
74793;SDS011;63320;50.768;6.724;2023-01-09T11:32:15;1.33;;;0.20;;
74793;SDS011;63320;50.768;6.724;2023-01-09T11:34:45;0.82;;;0.05;;
74793;SDS011;63320;50.768;6.724;2023-01-09T11:37:11;0.28;;;0.10;;
74793;SDS011;63320;50.768;6.724;2023-01-09T11:39:44;0.45;;;0.10;;
74793;SDS011;63320;50.768;6.724;2023-01-09T11:42:17;0.63;;;0.10;;
74793;SDS011;63320;50.768;6.724;2023-01-09T11:44:44;0.70;;;0.10;;
74793;SDS011;63320;50.768;6.724;2023-01-09T11:47:22;0.45;;;0.10;;
74793;SDS011;63320;50.768;6.724;2023-01-09T11:49:49;0.20;;;0.10;;
74793;SDS011;63320;50.768;6.724;2023-01-09T11:52:15;0.50;;;0.10;;
74793;SDS011;63320;50.768;6.724;2023-01-09T11:54:42;0.60;;;0.13;;
74793;SDS011;63320;50.768;6.724;2023-01-09T11:57:12;0.10;;;0.10;;
74793;SDS011;63320;50.768;6.724;2023-01-09T11:59:38;0.47;;;0.10;;
74793;SDS011;63320;50.768;6.724;2023-01-09T12:02:17;0.35;;;0.00;;
74793;SDS011;63320;50.768;6.724;2023-01-09T12:05:15;0.60;;;0.20;;
74793;SDS011;63320;50.768;6.724;2023-01-09T12:07:58;0.10;;;0.00;;
74793;SDS011;63320;50.768;6.724;2023-01-09T12:10:50;0.43;;;0.20;;
74793;SDS011;63320;50.768;6.724;2023-01-09T12:13:34;0.47;;;0.20;;
74793;SDS011;63320;50.768;6.724;2023-01-09T12:16:14;0.77;;;0.20;;
74793;SDS011;63320;50.768;6.724;2023-01-09T12:18:51;1.00;;;0.35;;
74793;SDS011;63320;50.768;6.724;2023-01-09T12:21:32;2.28;;;0.30;;
74793;SDS011;63320;50.768;6.724;2023-01-09T12:24:01;0.15;;;0.10;;
74793;SDS011;63320;50.768;6.724;2023-01-09T12:26:39;0.82;;;0.20;;
74793;SDS011;63320;50.768;6.724;2023-01-09T12:29:16;1.00;;;0.25;;
74793;SDS011;63320;50.768;6.724;2023-01-09T12:37:44;1.95;;;0.20;;
74793;SDS011;63320;50.768;6.724;2023-01-09T12:40:27;0.80;;;0.10;;
74793;SDS011;63320;50.768;6.724;2023-01-09T12:43:06;1.55;;;0.20;;
74793;SDS011;63320;50.768;6.724;2023-01-09T12:45:43;2.10;;;0.43;;
74793;SDS011;63320;50.768;6.724;2023-01-09T12:48:22;1.67;;;0.30;;
74793;SDS011;63320;50.768;6.724;2023-01-09T12:51:08;1.45;;;0.40;;
74793;SDS011;63320;50.768;6.724;2023-01-09T12:53:41;2.92;;;1.40;;
74793;SDS011;63320;50.768;6.724;2023-01-09T12:56:12;2.08;;;0.32;;
74793;SDS011;63320;50.768;6.724;2023-01-09T12:58:42;1.00;;;0.30;;
74793;SDS011;63320;50.768;6.724;2023-01-09T13:01:14;2.25;;;0.50;;
74793;SDS011;63320;50.768;6.724;2023-01-09T13:03:46;2.17;;;0.45;;
74793;SDS011;63320;50.768;6.724;2023-01-09T13:06:16;2.80;;;0.40;;
74793;SDS011;63320;50.768;6.724;2023-01-09T13:08:45;4.93;;;0.60;;
74793;SDS011;63320;50.768;6.724;2023-01-09T13:11:15;1.90;;;0.52;;
74793;SDS011;63320;50.768;6.724;2023-01-09T13:13:46;3.70;;;0.70;;
74793;SDS011;63320;50.768;6.724;2023-01-09T13:16:16;1.67;;;0.40;;
74793;SDS011;63320;50.768;6.724;2023-01-09T13:18:46;3.65;;;0.60;;
74793;SDS011;63320;50.768;6.724;2023-01-09T13:21:16;2.30;;;0.43;;
74793;SDS011;63320;50.768;6.724;2023-01-09T13:23:43;4.22;;;0.50;;
74793;SDS011;63320;50.768;6.724;2023-01-09T13:26:14;2.53;;;0.50;;
74793;SDS011;63320;50.768;6.724;2023-01-09T13:28:42;4.53;;;0.70;;
74793;SDS011;63320;50.768;6.724;2023-01-09T13:31:29;5.70;;;0.60;;
74793;SDS011;63320;50.768;6.724;2023-01-09T13:34:09;3.53;;;0.50;;
74793;SDS011;63320;50.768;6.724;2023-01-09T13:36:38;3.25;;;0.55;;
74793;SDS011;63320;50.768;6.724;2023-01-09T13:39:16;4.78;;;0.90;;
74793;SDS011;63320;50.768;6.724;2023-01-09T13:41:45;4.75;;;0.95;;
74793;SDS011;63320;50.768;6.724;2023-01-09T13:44:18;2.53;;;0.65;;
74793;SDS011;63320;50.768;6.724;2023-01-09T13:46:48;5.10;;;0.70;;
74793;SDS011;63320;50.768;6.724;2023-01-09T13:55:03;2.58;;;0.60;;
74793;SDS011;63320;50.768;6.724;2023-01-09T14:00:54;3.20;;;0.73;;
74793;SDS011;63320;50.768;6.724;2023-01-09T14:03:24;3.83;;;0.80;;
74793;SDS011;63320;50.768;6.724;2023-01-09T14:08:48;3.88;;;0.47;;
74793;SDS011;63320;50.768;6.724;2023-01-09T14:11:29;4.03;;;0.70;;
74793;SDS011;63320;50.768;6.724;2023-01-09T14:14:05;2.72;;;0.60;;
74793;SDS011;63320;50.768;6.724;2023-01-09T14:16:40;2.88;;;0.50;;
74793;SDS011;63320;50.768;6.724;2023-01-09T14:19:16;3.50;;;0.63;;
74793;SDS011;63320;50.768;6.724;2023-01-09T14:21:48;3.92;;;0.70;;
74793;SDS011;63320;50.768;6.724;2023-01-09T14:24:19;6.22;;;0.88;;
74793;SDS011;63320;50.768;6.724;2023-01-09T14:26:47;3.72;;;0.63;;
74793;SDS011;63320;50.768;6.724;2023-01-09T14:35:07;6.43;;;0.85;;
74793;SDS011;63320;50.768;6.724;2023-01-09T14:37:38;6.00;;;0.80;;
74793;SDS011;63320;50.768;6.724;2023-01-09T14:40:07;4.10;;;0.63;;
74793;SDS011;63320;50.768;6.724;2023-01-09T14:42:43;5.43;;;1.00;;
74793;SDS011;63320;50.768;6.724;2023-01-09T14:45:13;4.68;;;0.82;;
74793;SDS011;63320;50.768;6.724;2023-01-09T14:47:43;4.78;;;0.82;;
74793;SDS011;63320;50.768;6.724;2023-01-09T14:50:14;3.03;;;0.70;;
74793;SDS011;63320;50.768;6.724;2023-01-09T14:52:46;5.30;;;0.95;;
74793;SDS011;63320;50.768;6.724;2023-01-09T14:55:15;5.93;;;0.85;;
74793;SDS011;63320;50.768;6.724;2023-01-09T14:57:46;5.35;;;0.90;;
74793;SDS011;63320;50.768;6.724;2023-01-09T15:00:14;5.93;;;0.90;;
74793;SDS011;63320;50.768;6.724;2023-01-09T15:02:41;5.68;;;0.80;;
74793;SDS011;63320;50.768;6.724;2023-01-09T15:05:09;4.97;;;0.80;;
74793;SDS011;63320;50.768;6.724;2023-01-09T15:07:39;3.08;;;0.70;;
74793;SDS011;63320;50.768;6.724;2023-01-09T15:10:10;5.03;;;1.00;;
74793;SDS011;63320;50.768;6.724;2023-01-09T15:12:40;3.30;;;0.80;;
74793;SDS011;63320;50.768;6.724;2023-01-09T15:15:09;6.45;;;1.00;;
74793;SDS011;63320;50.768;6.724;2023-01-09T15:17:37;4.88;;;0.88;;
74793;SDS011;63320;50.768;6.724;2023-01-09T15:20:04;5.38;;;0.90;;
74793;SDS011;63320;50.768;6.724;2023-01-09T15:22:31;9.50;;;0.82;;
74793;SDS011;63320;50.768;6.724;2023-01-09T15:25:11;4.55;;;0.90;;
74793;SDS011;63320;50.768;6.724;2023-01-09T15:27:47;3.13;;;0.82;;
74793;SDS011;63320;50.768;6.724;2023-01-09T15:30:14;2.20;;;0.70;;
74793;SDS011;63320;50.768;6.724;2023-01-09T15:32:41;3.83;;;1.10;;
74793;SDS011;63320;50.768;6.724;2023-01-09T15:35:11;5.47;;;1.17;;